Time;durP1;ratioP1;P1;durP2;ratioP2;P2;SDS_P1;SDS_P2;PMS_P1;PMS_P2;Temp;Humidity;BMP_temperature;BMP_pressure;BME280_temperature;BME280_humidity;BME280_pressure;Samples;Min_cycle;Max_cycle;Signal;HPM_P1;HPM_P2
2023/10/29 00:03:06;;;;;;;6.60;2.78;;;;;;;19.01;62.38;95267.81;10370478;28;20375;-28
2023/10/29 00:08:09;;;;;;;6.28;2.47;;;;;;;19.01;62.49;95265.28;10369216;28;20026;-29
2023/10/29 00:13:09;;;;;;;6.05;2.92;;;;;;;18.98;62.61;95255.19;10358753;28;20034;-28
2023/10/29 00:18:12;;;;;;;6.73;3.10;;;;;;;19.00;62.58;95249.22;10366150;28;20033;-29
2023/10/29 00:23:13;;;;;;;4.32;2.55;;;;;;;18.98;62.58;95253.50;10369494;28;20794;-28
2023/10/29 00:28:13;;;;;;;6.07;2.45;;;;;;;18.99;62.43;95255.16;10364734;28;20126;-29
2023/10/29 00:33:14;;;;;;;3.40;1.97;;;;;;;18.99;62.59;95254.34;10350074;28;20460;-28
2023/10/29 00:38:15;;;;;;;6.22;2.95;;;;;;;18.96;62.60;95239.19;10368737;28;20088;-29
2023/10/29 00:43:16;;;;;;;5.03;2.40;;;;;;;18.99;62.41;95239.13;10364067;28;20479;-28
2023/10/29 00:48:17;;;;;;;4.30;2.20;;;;;;;18.99;62.40;95228.97;10381315;28;20300;-28
2023/10/29 00:53:18;;;;;;;4.18;2.58;;;;;;;18.97;62.50;95238.31;10368141;28;20126;-28
2023/10/29 00:58:19;;;;;;;3.22;2.08;;;;;;;18.95;62.48;95232.44;10364831;28;20070;-28
2023/10/29 01:03:20;;;;;;;7.05;2.67;;;;;;;18.97;62.34;95230.69;10357997;28;20057;-30
2023/10/29 01:08:20;;;;;;;4.77;2.50;;;;;;;18.99;62.14;95239.94;10364046;28;20049;-28
2023/10/29 01:13:21;;;;;;;6.28;3.42;;;;;;;19.00;62.34;95220.50;10360789;28;20600;-28
2023/10/29 01:18:21;;;;;;;5.70;2.75;;;;;;;19.00;62.12;95215.41;10357681;28;20042;-29
2023/10/29 01:23:23;;;;;;;6.32;2.70;;;;;;;19.00;62.24;95220.50;10365865;28;20059;-28
2023/10/29 01:28:24;;;;;;;4.63;2.33;;;;;;;19.00;61.95;95216.22;10366560;28;20042;-28
2023/10/29 01:33:25;;;;;;;4.40;2.72;;;;;;;19.00;62.18;95216.22;10367779;28;20029;-29
2023/10/29 01:38:26;;;;;;;4.20;2.33;;;;;;;18.97;62.29;95205.34;10366796;28;20493;-28
2023/10/29 01:43:26;;;;;;;8.10;3.92;;;;;;;19.00;62.09;95207.81;10366735;28;20030;-29
2023/10/29 01:48:27;;;;;;;4.67;2.03;;;;;;;18.98;62.12;95204.47;10355773;28;20042;-28
2023/10/29 01:53:27;;;;;;;5.90;2.63;;;;;;;18.97;62.13;95197.72;10366523;28;20299;-29
2023/10/29 01:58:28;;;;;;;5.68;2.10;;;;;;;18.95;62.38;95194.41;10362138;28;20038;-30
2023/10/29 02:03:28;;;;;;;3.13;2.03;;;;;;;18.97;62.27;95190.13;10355820;28;20042;-28
2023/10/29 02:08:29;;;;;;;4.03;2.35;;;;;;;18.95;62.14;95204.56;10359261;28;20034;-28
2023/10/29 02:13:31;;;;;;;5.73;2.60;;;;;;;18.96;62.22;95201.97;10361425;28;20022;-28
2023/10/29 02:18:32;;;;;;;4.68;2.00;;;;;;;18.97;62.37;95197.72;10345653;28;20037;-29
2023/10/29 02:23:34;;;;;;;2.83;1.70;;;;;;;18.97;62.17;95195.19;10363606;28;20042;-28
2023/10/29 02:28:38;;;;;;;6.22;2.35;;;;;;;18.95;62.22;95191.88;10362189;28;20037;-28
2023/10/29 02:33:38;;;;;;;3.13;2.13;;;;;;;18.96;62.08;95196.91;10357732;28;20064;-28
2023/10/29 02:38:40;;;;;;;4.67;2.00;;;;;;;18.95;62.32;95179.19;10367321;28;20030;-29
2023/10/29 02:43:40;;;;;;;4.20;2.05;;;;;;;18.94;62.19;95185.13;10363091;28;20408;-29
2023/10/29 02:48:40;;;;;;;7.23;2.00;;;;;;;18.95;62.41;95181.72;10374481;28;20095;-28
2023/10/29 02:53:41;;;;;;;2.90;1.93;;;;;;;18.94;62.31;95175.00;10369860;28;20053;-30
2023/10/29 02:58:43;;;;;;;5.32;2.30;;;;;;;18.95;62.48;95187.66;10371833;28;20795;-28
2023/10/29 03:03:44;;;;;;;3.17;1.87;;;;;;;18.98;62.04;95176.56;10372707;28;20033;-28
2023/10/29 03:08:44;;;;;;;6.68;2.50;;;;;;;18.98;62.34;95164.72;10364776;28;20073;-32
2023/10/29 03:13:45;;;;;;;3.43;1.87;;;;;;;18.97;62.17;95164.75;10370794;28;20022;-29
2023/10/29 03:18:47;;;;;;;5.47;2.00;;;;;;;18.95;62.30;95151.28;10373405;28;20026;-28
2023/10/29 03:23:47;;;;;;;4.65;2.08;;;;;;;18.94;62.22;95157.25;10368114;28;20042;-29
2023/10/29 03:28:49;;;;;;;4.87;2.30;;;;;;;18.93;62.12;95153.03;10364678;28;20108;-29
2023/10/29 03:33:49;;;;;;;2.22;1.77;;;;;;;18.93;62.09;95128.50;10371785;28;20034;-29
2023/10/29 03:38:49;;;;;;;3.80;1.83;;;;;;;18.94;62.21;95125.13;10357283;28;20092;-28
2023/10/29 03:43:50;;;;;;;3.50;1.97;;;;;;;18.93;62.15;95128.50;10367804;28;20292;-29
2023/10/29 03:48:50;;;;;;;4.35;1.60;;;;;;;18.94;62.26;95144.56;10369439;28;20300;-29
2023/10/29 03:53:51;;;;;;;4.97;1.70;;;;;;;18.92;62.19;95115.88;10362373;28;20241;-28
2023/10/29 03:58:51;;;;;;;5.47;2.10;;;;;;;18.92;62.16;95116.69;10363417;28;20624;-31
2023/10/29 04:03:52;;;;;;;3.83;2.03;;;;;;;18.93;62.04;95115.00;10362467;28;20501;-29
2023/10/29 04:08:52;;;;;;;3.97;2.25;;;;;;;18.94;62.18;95104.00;10355650;28;20346;-28
2023/10/29 04:13:52;;;;;;;4.47;2.30;;;;;;;18.94;62.02;95098.91;10359564;28;20125;-28
2023/10/29 04:18:53;;;;;;;4.93;1.90;;;;;;;18.98;62.14;95105.56;10353740;28;20041;-29
2023/10/29 04:23:53;;;;;;;3.83;2.30;;;;;;;18.89;61.71;95086.38;10369255;28;21076;-29
2023/10/29 04:28:53;;;;;;;4.27;1.90;;;;;;;18.94;61.78;95104.00;10360465;28;20497;-28
2023/10/29 04:33:54;;;;;;;5.50;1.93;;;;;;;18.96;62.00;95092.09;10369664;28;20105;-28
2023/10/29 04:38:55;;;;;;;3.92;2.53;;;;;;;18.95;61.69;95090.44;10362375;28;20112;-29
2023/10/29 04:43:55;;;;;;;2.92;1.60;;;;;;;18.96;61.60;95094.63;10366978;28;20492;-29
2023/10/29 04:48:55;;;;;;;2.95;1.65;;;;;;;18.98;61.75;95090.34;10368436;28;20038;-28
2023/10/29 04:53:56;;;;;;;5.27;2.73;;;;;;;18.94;61.76;95089.63;10353442;28;20041;-29
2023/10/29 04:58:56;;;;;;;3.38;1.67;;;;;;;18.97;61.65;95088.69;10366596;28;20049;-29
2023/10/29 05:03:56;;;;;;;4.03;1.97;;;;;;;18.94;61.53;95081.16;10368190;28;20038;-28
2023/10/29 05:08:58;;;;;;;5.17;1.43;;;;;;;18.98;61.46;95090.34;10355476;28;20046;-29
2023/10/29 05:13:58;;;;;;;4.22;1.88;;;;;;;18.96;61.47;95081.94;10366634;28;20041;-28
2023/10/29 05:18:59;;;;;;;1.97;1.20;;;;;;;18.99;61.57;95084.41;10367687;28;20038;-28
2023/10/29 05:24:00;;;;;;;2.95;1.77;;;;;;;19.00;61.27;95074.22;10356021;28;20485;-28
2023/10/29 05:29:00;;;;;;;2.83;1.52;;;;;;;19.03;61.23;95094.44;10365457;28;20040;-30
2023/10/29 05:34:01;;;;;;;1.57;1.23;;;;;;;19.02;61.24;95086.84;10367599;28;20025;-29
2023/10/29 05:39:02;;;;;;;3.28;1.50;;;;;;;19.03;60.90;95083.44;10357459;28;20046;-28
2023/10/29 05:44:02;;;;;;;3.33;1.60;;;;;;;19.02;60.78;95097.00;10365768;28;20045;-28
2023/10/29 05:49:03;;;;;;;2.17;1.20;;;;;;;19.01;60.80;95113.09;10366974;28;20067;-29
2023/10/29 05:54:03;;;;;;;1.83;1.30;;;;;;;18.98;60.61;95125.84;10354198;28;20034;-28
2023/10/29 05:59:04;;;;;;;1.95;1.35;;;;;;;18.98;60.12;95153.75;10364606;28;20034;-28
2023/10/29 06:04:05;;;;;;;1.83;1.15;;;;;;;18.93;60.47;95153.88;10366867;28;20048;-28
2023/10/29 06:09:06;;;;;;;1.65;1.02;;;;;;;18.99;59.86;95171.47;10361504;28;20066;-28
2023/10/29 06:14:06;;;;;;;2.20;1.00;;;;;;;19.01;59.78;95187.47;10371322;28;20026;-28
2023/10/29 06:19:08;;;;;;;1.55;1.00;;;;;;;19.03;59.17;95189.97;10374169;28;20295;-28
2023/10/29 06:24:09;;;;;;;1.92;0.95;;;;;;;19.02;59.38;95203.53;10363427;28;20037;-29
2023/10/29 06:29:09;;;;;;;1.05;0.73;;;;;;;19.01;59.29;95197.59;10372040;28;20527;-28
2023/10/29 06:34:09;;;;;;;1.63;1.13;;;;;;;19.02;59.54;95203.53;10369997;28;20381;-29
2023/10/29 06:39:10;;;;;;;1.30;0.80;;;;;;;19.04;58.89;95211.91;10366420;28;20042;-30
2023/10/29 06:44:10;;;;;;;1.80;1.17;;;;;;;19.03;59.05;95205.19;10357465;28;20297;-28
2023/10/29 06:49:11;;;;;;;2.20;1.03;;;;;;;19.05;57.97;95208.50;10357885;28;20292;-28
2023/10/29 06:54:14;;;;;;;1.75;1.02;;;;;;;19.08;58.25;95228.75;10361170;28;20092;-28
2023/10/29 06:59:14;;;;;;;3.60;1.40;;;;;;;19.07;57.95;95238.03;10370237;28;20030;-28
2023/10/29 07:04:15;;;;;;;9.33;1.63;;;;;;;19.09;58.67;95235.47;10372823;28;20497;-28
2023/10/29 07:09:15;;;;;;;7.57;2.08;;;;;;;19.02;58.71;95244.91;10357700;28;20479;-28
2023/10/29 07:14:16;;;;;;;6.38;0.90;;;;;;;19.02;57.29;95254.25;10358513;28;20156;-28
2023/10/29 07:19:19;;;;;;;5.57;1.10;;;;;;;19.01;56.86;95250.88;10372000;28;20395;-28
2023/10/29 07:24:19;;;;;;;3.42;0.90;;;;;;;19.01;57.16;95248.34;10362184;28;21104;-29
2023/10/29 07:29:20;;;;;;;4.97;0.93;;;;;;;19.02;56.73;95249.19;10357043;28;20044;-28
2023/10/29 07:34:20;;;;;;;3.53;1.13;;;;;;;19.11;56.53;95248.94;10364320;28;20036;-27
2023/10/29 07:39:20;;;;;;;5.73;1.10;;;;;;;19.15;56.72;95260.66;10341186;28;20046;-28
2023/10/29 07:44:24;;;;;;;3.30;1.43;;;;;;;19.15;57.59;95235.28;10338921;28;20586;-28
2023/10/29 07:49:24;;;;;;;1.48;1.10;;;;;;;19.13;57.57;95242.97;10343839;28;20061;-28
2023/10/29 07:54:24;;;;;;;3.23;1.40;;;;;;;19.14;58.18;95236.16;10339504;28;20034;-28
2023/10/29 07:59:25;;;;;;;5.93;1.47;;;;;;;19.13;58.49;95252.25;10365420;28;20030;-29
2023/10/29 08:04:28;;;;;;;5.30;1.63;;;;;;;19.13;59.07;95270.88;10362491;28;20034;-28
2023/10/29 08:09:28;;;;;;;6.43;1.85;;;;;;;19.13;59.13;95270.88;10352002;28;20829;-28
2023/10/29 08:14:29;;;;;;;7.43;1.57;;;;;;;19.13;59.30;95263.25;10366953;28;20049;-28
2023/10/29 08:19:29;;;;;;;4.50;1.20;;;;;;;19.08;60.16;95264.25;10367047;28;20097;-28
2023/10/29 08:24:30;;;;;;;2.35;1.33;;;;;;;18.94;60.93;95271.34;10352888;28;20060;-29
2023/10/29 08:29:31;;;;;;;2.53;1.10;;;;;;;18.98;59.86;95252.66;10357525;28;20496;-28
2023/10/29 08:34:31;;;;;;;3.60;1.20;;;;;;;18.97;60.22;95223.09;10368827;28;20034;-28
2023/10/29 08:39:32;;;;;;;4.30;1.23;;;;;;;19.00;60.64;95231.44;10368585;28;20473;-29
2023/10/29 08:44:32;;;;;;;2.25;1.40;;;;;;;18.99;60.07;95231.50;10360088;28;20289;-28
2023/10/29 08:49:33;;;;;;;3.33;1.13;;;;;;;19.05;59.87;95224.56;10354421;28;20066;-29
2023/10/29 08:54:33;;;;;;;3.78;1.13;;;;;;;19.05;59.75;95223.72;10347739;28;20288;-28
2023/10/29 08:59:34;;;;;;;4.23;1.23;;;;;;;19.10;59.87;95234.59;10343908;28;20033;-28
2023/10/29 09:04:40;;;;;;;4.03;1.33;;;;;;;19.12;59.82;95235.38;10341413;28;20022;-29
2023/10/29 09:09:40;;;;;;;1.67;1.20;;;;;;;19.13;59.79;95242.13;10354205;28;20030;-28
2023/10/29 09:14:40;;;;;;;4.60;1.67;;;;;;;19.11;60.88;95231.19;10339828;28;20037;-29
2023/10/29 09:19:41;;;;;;;5.03;1.52;;;;;;;19.12;59.22;95236.22;10362596;28;20087;-29
2023/10/29 09:24:41;;;;;;;4.10;1.40;;;;;;;19.14;59.07;95238.69;10355492;28;20092;-28
2023/10/29 09:29:44;;;;;;;5.85;1.45;;;;;;;19.15;58.97;95240.38;10353226;28;20500;-28
2023/10/29 09:34:44;;;;;;;8.02;1.48;;;;;;;19.14;59.13;95218.41;10367308;28;20038;-29
2023/10/29 09:39:44;;;;;;;8.63;1.93;;;;;;;19.13;58.44;95230.28;10353825;28;20038;-29
2023/10/29 09:44:49;;;;;;;6.15;1.88;;;;;;;19.15;59.52;95220.06;10362995;28;20029;-29
2023/10/29 09:49:51;;;;;;;9.77;2.15;;;;;;;19.12;59.83;95230.31;10375379;28;20145;-29
2023/10/29 09:54:53;;;;;;;4.55;1.40;;;;;;;19.10;59.81;95242.22;10361824;28;20108;-29
2023/10/29 09:59:53;;;;;;;5.80;1.50;;;;;;;19.12;59.83;95240.44;10366064;28;20044;-28
2023/10/29 10:04:55;;;;;;;6.53;1.80;;;;;;;19.07;59.87;95227.88;10375334;28;20033;-29
2023/10/29 10:09:56;;;;;;;4.82;1.67;;;;;;;19.12;59.78;95225.22;10364845;28;20022;-28
2023/10/29 10:15:04;;;;;;;7.00;1.75;;;;;;;19.12;59.50;95238.75;10365448;28;20113;-28
2023/10/29 10:20:06;;;;;;;5.10;1.50;;;;;;;19.13;59.76;95239.56;10368889;28;20122;-28
2023/10/29 10:25:16;;;;;;;5.95;1.58;;;;;;;19.11;59.79;95243.88;10364617;28;20032;-28
2023/10/29 10:30:29;;;;;;;3.13;1.42;;;;;;;19.12;59.64;95240.44;10369554;28;20042;-28
2023/10/29 10:35:47;;;;;;;5.45;1.17;;;;;;;19.11;59.91;95244.72;10363254;28;20381;-27
2023/10/29 10:40:58;;;;;;;4.97;1.35;;;;;;;19.12;59.55;95226.09;10369211;28;20532;-28
2023/10/29 10:46:01;;;;;;;3.72;1.38;;;;;;;19.10;59.67;95217.66;10365460;28;20033;-28
2023/10/29 10:51:02;;;;;;;4.55;1.40;;;;;;;19.11;59.83;95210.88;10373195;28;20048;-28
2023/10/29 10:56:03;;;;;;;4.95;2.00;;;;;;;19.10;59.67;95187.22;10371855;28;20120;-29
2023/10/29 11:01:04;;;;;;;4.38;1.27;;;;;;;19.12;59.55;95184.66;10367650;28;20043;-28
2023/10/29 11:06:05;;;;;;;4.97;1.30;;;;;;;19.11;59.51;95177.91;10365999;28;20060;-28
2023/10/29 11:11:06;;;;;;;2.58;1.30;;;;;;;19.11;59.69;95185.53;10370067;28;20113;-28
2023/10/29 11:16:23;;;;;;;1.75;0.85;;;;;;;19.05;59.57;95185.69;10367499;28;20022;-28
2023/10/29 11:21:36;;;;;;;3.17;1.20;;;;;;;19.12;59.66;95204.94;10363618;28;20125;-28
2023/10/29 11:26:36;;;;;;;6.22;1.80;;;;;;;19.12;59.57;95195.63;10365744;28;20076;-28
2023/10/29 11:31:36;;;;;;;2.37;1.13;;;;;;;19.12;59.79;95202.41;10366131;28;20047;-28
2023/10/29 11:36:42;;;;;;;4.00;1.40;;;;;;;19.12;59.65;95195.63;10363820;28;20064;-28
2023/10/29 11:41:46;;;;;;;2.83;1.23;;;;;;;19.12;59.46;95202.41;10370615;28;20116;-29
2023/10/29 11:46:56;;;;;;;2.20;1.08;;;;;;;19.12;59.27;95202.41;10365998;28;20037;-28
2023/10/29 11:52:01;;;;;;;4.20;1.40;;;;;;;19.12;59.38;95199.88;10366304;28;20025;-29
2023/10/29 11:57:05;;;;;;;2.27;1.13;;;;;;;19.10;59.47;95182.16;10370190;28;20044;-28
2023/10/29 12:02:06;;;;;;;2.42;1.05;;;;;;;19.11;59.53;95186.38;10351386;28;20026;-29
2023/10/29 12:07:07;;;;;;;2.28;0.98;;;;;;;19.12;59.31;95184.66;10361627;28;20057;-28
2023/10/29 12:12:09;;;;;;;2.38;1.35;;;;;;;19.13;59.43;95181.25;10366354;28;20065;-28
2023/10/29 12:17:10;;;;;;;1.25;0.80;;;;;;;19.11;59.52;95183.00;10367542;28;20038;-29
2023/10/29 12:22:27;;;;;;;3.20;1.10;;;;;;;19.11;59.52;95188.91;10369389;28;20038;-29
2023/10/29 12:27:30;;;;;;;0.95;0.85;;;;;;;19.11;59.32;95181.28;10363928;28;20035;-28
2023/10/29 12:32:30;;;;;;;1.23;0.70;;;;;;;19.12;59.32;95184.66;10361724;28;20026;-28
2023/10/29 12:37:30;;;;;;;2.17;0.90;;;;;;;19.11;59.00;95196.50;10368381;28;20037;-29
2023/10/29 12:42:52;;;;;;;1.57;0.80;;;;;;;19.13;59.55;95206.59;10367747;28;20304;-29
2023/10/29 12:48:12;;;;;;;2.63;0.80;;;;;;;19.12;59.37;95225.22;10363876;28;20120;-29
2023/10/29 12:53:22;;;;;;;2.42;1.00;;;;;;;19.12;58.92;95217.63;10367752;28;20021;-29
2023/10/29 12:58:22;;;;;;;1.40;0.90;;;;;;;19.12;58.31;95215.94;10362258;28;20065;-28
2023/10/29 13:03:24;;;;;;;2.67;1.10;;;;;;;19.11;59.37;95208.34;10368370;28;20048;-28
2023/10/29 13:08:25;;;;;;;1.63;0.75;;;;;;;19.11;58.93;95203.28;10367294;28;20301;-28
2023/10/29 13:13:26;;;;;;;1.17;0.70;;;;;;;19.11;59.20;95208.34;10361286;28;20048;-28
2023/10/29 13:18:27;;;;;;;2.38;0.80;;;;;;;19.12;59.04;95194.78;10368009;28;20042;-28
2023/10/29 13:23:27;;;;;;;3.95;0.68;;;;;;;19.11;59.22;95176.22;10367178;28;20409;-29
2023/10/29 13:28:28;;;;;;;1.35;1.25;;;;;;;19.10;59.09;95161.84;10360300;28;20036;-28
2023/10/29 13:33:29;;;;;;;3.35;1.20;;;;;;;19.11;58.90;95148.31;10367902;28;20033;-29
2023/10/29 13:38:29;;;;;;;1.08;0.82;;;;;;;19.09;59.13;95152.56;10366851;28;20033;-28
2023/10/29 13:43:30;;;;;;;1.53;0.90;;;;;;;19.08;59.00;95152.66;10359024;28;20034;-29
2023/10/29 13:48:30;;;;;;;3.00;0.80;;;;;;;19.12;58.97;95133.91;10366357;28;20316;-28
2023/10/29 13:53:31;;;;;;;1.00;0.70;;;;;;;19.11;59.13;95142.41;10359616;28;20030;-29
2023/10/29 13:58:31;;;;;;;1.15;1.05;;;;;;;19.10;58.88;95139.03;10360142;28;20037;-28
2023/10/29 14:03:32;;;;;;;1.70;1.10;;;;;;;19.11;59.06;95148.31;10366941;28;20099;-29
2023/10/29 14:08:32;;;;;;;1.17;0.83;;;;;;;19.10;58.91;95143.28;10366261;28;20042;-30
2023/10/29 14:13:33;;;;;;;1.37;0.63;;;;;;;19.10;58.87;95136.47;10359856;28;20457;-28
2023/10/29 14:18:34;;;;;;;1.48;0.65;;;;;;;19.10;59.32;95130.59;10366030;28;20053;-28
2023/10/29 14:23:35;;;;;;;2.58;0.75;;;;;;;19.11;58.99;95129.72;10366303;28;20041;-29
2023/10/29 14:28:35;;;;;;;1.15;0.60;;;;;;;19.10;59.10;95136.47;10359038;28;20030;-30
2023/10/29 14:33:35;;;;;;;0.83;0.40;;;;;;;19.09;59.02;95129.75;10370600;28;20038;-29
2023/10/29 14:38:36;;;;;;;1.00;0.50;;;;;;;19.10;59.26;95102.69;10373304;28;20034;-28
2023/10/29 14:43:37;;;;;;;1.37;0.60;;;;;;;19.08;59.04;95095.13;10365359;28;20042;-27
2023/10/29 14:48:37;;;;;;;0.95;0.60;;;;;;;19.11;59.29;95095.06;10373189;28;20108;-28
2023/10/29 14:53:37;;;;;;;0.70;0.60;;;;;;;19.04;59.23;95077.50;10372845;28;20034;-28
2023/10/29 14:58:38;;;;;;;0.70;0.40;;;;;;;19.09;58.99;95101.03;10365722;28;20042;-28
2023/10/29 15:03:38;;;;;;;1.07;0.77;;;;;;;19.09;59.04;95112.00;10372974;28;20042;-27
2023/10/29 15:08:39;;;;;;;1.73;0.53;;;;;;;19.10;59.03;95110.31;10371881;28;20409;-28
2023/10/29 15:13:42;;;;;;;0.90;0.52;;;;;;;19.10;59.06;95128.06;10364285;28;20034;-28
2023/10/29 15:18:42;;;;;;;0.93;0.40;;;;;;;19.10;58.94;95130.59;10364297;28;20073;-28
2023/10/29 15:23:43;;;;;;;1.10;0.63;;;;;;;19.04;59.13;95130.75;10363628;28;20118;-29
2023/10/29 15:28:44;;;;;;;0.73;0.50;;;;;;;19.10;59.00;95135.66;10357049;28;20033;-29
2023/10/29 15:33:44;;;;;;;0.70;0.60;;;;;;;19.09;58.93;95159.38;10364252;28;20029;-29
2023/10/29 15:38:45;;;;;;;1.03;0.63;;;;;;;19.07;58.68;95150.94;10365175;28;20088;-28
2023/10/29 15:43:45;;;;;;;1.45;1.08;;;;;;;19.06;60.83;95167.06;10362058;28;20533;-29
2023/10/29 15:48:46;;;;;;;3.87;0.73;;;;;;;19.01;61.16;95166.34;10351459;28;20038;-29
2023/10/29 15:53:50;;;;;;;3.85;0.52;;;;;;;19.08;59.46;95178.00;10339623;28;20416;-29
2023/10/29 15:58:50;;;;;;;5.15;0.80;;;;;;;19.07;61.68;95161.94;10354501;28;20034;-29
2023/10/29 16:03:50;;;;;;;3.13;0.63;;;;;;;19.18;60.13;95165.00;10346455;28;20482;-28
2023/10/29 16:08:51;;;;;;;0.80;0.60;;;;;;;19.21;59.99;95194.56;10340419;28;20029;-28
2023/10/29 16:13:51;;;;;;;2.97;0.95;;;;;;;19.19;60.69;95179.38;10339648;28;20038;-28
2023/10/29 16:18:52;;;;;;;8.43;1.83;;;;;;;19.20;61.43;95187.84;10354761;28;20058;-28
2023/10/29 16:23:53;;;;;;;3.45;1.30;;;;;;;19.26;60.76;95195.31;10363119;28;20292;-28
2023/10/29 16:28:53;;;;;;;2.33;1.43;;;;;;;19.27;60.88;95199.50;10343830;28;20030;-28
2023/10/29 16:33:53;;;;;;;3.00;1.37;;;;;;;19.23;61.59;95193.66;10355038;28;20018;-28
2023/10/29 16:38:56;;;;;;;4.70;1.73;;;;;;;19.23;61.97;95197.91;10349810;28;20281;-28
2023/10/29 16:43:56;;;;;;;3.75;1.35;;;;;;;19.22;62.08;95212.31;10337315;28;20041;-28
2023/10/29 16:48:56;;;;;;;4.28;1.20;;;;;;;19.21;62.46;95225.03;10338153;28;20030;-29
2023/10/29 16:53:57;;;;;;;4.30;1.33;;;;;;;19.21;61.67;95225.03;10346607;28;20037;-27
2023/10/29 16:59:00;;;;;;;3.15;1.33;;;;;;;19.22;61.83;95245.28;10339232;28;20590;-29
2023/10/29 17:04:00;;;;;;;5.68;1.40;;;;;;;19.20;61.91;95256.34;10354758;28;20029;-28
2023/10/29 17:09:03;;;;;;;5.40;1.50;;;;;;;19.22;62.17;95262.19;10338879;28;20481;-29
2023/10/29 17:14:04;;;;;;;3.80;1.77;;;;;;;19.19;62.64;95272.44;10350944;28;20071;-28
2023/10/29 17:19:05;;;;;;;5.57;1.17;;;;;;;19.30;62.76;95276.38;10342243;28;20029;-28
2023/10/29 17:24:06;;;;;;;4.80;1.40;;;;;;;19.32;62.10;95274.63;10337878;28;20471;-28
2023/10/29 17:29:07;;;;;;;8.35;1.38;;;;;;;19.29;61.98;95289.09;10337368;28;20041;-30
2023/10/29 17:34:07;;;;;;;3.97;1.33;;;;;;;19.31;61.81;95300.03;10342774;28;20030;-28
2023/10/29 17:39:12;;;;;;;2.47;0.98;;;;;;;19.30;61.59;95311.03;10346181;28;20358;-29
2023/10/29 17:44:13;;;;;;;3.45;1.50;;;;;;;19.30;62.17;95321.19;10342895;28;20160;-28
2023/10/29 17:49:13;;;;;;;5.63;1.90;;;;;;;19.28;62.00;95333.09;10365039;28;20105;-28
2023/10/29 17:54:13;;;;;;;8.77;1.40;;;;;;;19.24;62.49;95351.81;10335362;28;20670;-29
2023/10/29 17:59:14;;;;;;;4.00;1.20;;;;;;;19.25;62.80;95363.63;10335698;28;20027;-29
2023/10/29 18:04:14;;;;;;;4.20;1.40;;;;;;;19.25;61.74;95373.78;10348697;28;20294;-28
2023/10/29 18:09:15;;;;;;;5.20;1.77;;;;;;;19.27;62.46;95385.53;10365465;28;20304;-29
2023/10/29 18:14:15;;;;;;;5.03;1.37;;;;;;;19.22;61.72;95383.97;10356620;28;20040;-29
2023/10/29 18:19:15;;;;;;;3.37;1.33;;;;;;;19.26;61.68;95398.28;10344575;28;20802;-28
2023/10/29 18:24:20;;;;;;;3.23;1.43;;;;;;;19.24;62.29;95405.09;10355208;28;20404;-29
2023/10/29 18:29:20;;;;;;;5.65;1.25;;;;;;;19.23;61.57;95411.03;10346344;28;20375;-29
2023/10/29 18:34:21;;;;;;;4.88;1.20;;;;;;;19.22;61.13;95409.34;10332460;28;20026;-29
2023/10/29 18:39:21;;;;;;;2.43;1.00;;;;;;;19.23;61.22;95421.16;10354269;28;20036;-28
2023/10/29 18:44:23;;;;;;;3.27;1.17;;;;;;;19.21;61.54;95412.75;10352888;28;20033;-29
2023/10/29 18:49:28;;;;;;;7.03;1.20;;;;;;;19.28;60.75;95414.28;10372238;28;20284;-29
2023/10/29 18:54:29;;;;;;;3.78;1.13;;;;;;;19.31;60.92;95419.28;10348448;28;20022;-29
2023/10/29 18:59:29;;;;;;;4.00;1.40;;;;;;;19.33;61.81;95417.56;10356653;28;20037;-29
2023/10/29 19:04:29;;;;;;;4.53;1.37;;;;;;;19.32;61.49;95415.88;10359651;28;20685;-28
2023/10/29 19:09:30;;;;;;;6.27;1.90;;;;;;;19.31;62.90;95419.28;10356842;28;20303;-29
2023/10/29 19:14:31;;;;;;;12.25;1.92;;;;;;;19.32;61.92;95426.03;10363806;28;20057;-28
2023/10/29 19:19:32;;;;;;;6.40;2.17;;;;;;;19.29;62.48;95436.25;10344691;28;20033;-28
2023/10/29 19:24:33;;;;;;;9.25;1.70;;;;;;;19.31;61.96;95439.59;10338855;28;20038;-29
2023/10/29 19:29:34;;;;;;;8.32;1.40;;;;;;;19.29;61.70;95438.78;10339014;28;20389;-30
2023/10/29 19:34:34;;;;;;;6.50;1.70;;;;;;;19.28;62.01;95443.06;10339328;28;20030;-29
2023/10/29 19:39:35;;;;;;;5.67;1.50;;;;;;;19.32;62.38;95441.25;10342527;28;20293;-28
2023/10/29 19:44:36;;;;;;;4.83;1.57;;;;;;;19.29;62.39;95452.34;10357526;28;20296;-28
2023/10/29 19:49:36;;;;;;;6.57;1.77;;;;;;;19.29;61.89;95456.56;10366471;28;20460;-28
2023/10/29 19:54:37;;;;;;;6.33;2.00;;;;;;;19.30;61.43;95453.16;10348934;28;20113;-28
2023/10/29 19:59:37;;;;;;;4.40;1.60;;;;;;;19.29;61.68;95465.03;10338806;28;20398;-28
2023/10/29 20:04:40;;;;;;;5.73;1.27;;;;;;;19.28;61.54;95458.28;10358146;28;20296;-28
2023/10/29 20:09:40;;;;;;;10.15;3.67;;;;;;;19.31;61.56;95475.09;10353584;28;20025;-29
2023/10/29 20:14:41;;;;;;;4.87;1.27;;;;;;;19.30;61.36;95470.91;10364366;28;20065;-28
2023/10/29 20:19:42;;;;;;;3.13;1.30;;;;;;;19.29;61.07;95482.78;10362531;28;20037;-28
2023/10/29 20:24:43;;;;;;;5.38;1.50;;;;;;;19.29;61.07;95476.84;10364093;28;20052;-29
2023/10/29 20:29:43;;;;;;;3.47;1.27;;;;;;;19.29;60.94;95497.16;10362693;28;20032;-28
2023/10/29 20:34:43;;;;;;;5.30;1.50;;;;;;;19.26;62.53;95499.78;10369703;28;20029;-29
2023/10/29 20:39:44;;;;;;;3.23;1.27;;;;;;;19.29;62.07;95492.94;10353535;28;20088;-28
2023/10/29 20:44:44;;;;;;;3.80;1.30;;;;;;;19.26;65.17;95512.47;10346611;28;20616;-28
2023/10/29 20:49:44;;;;;;;6.20;1.20;;;;;;;19.26;63.34;95518.34;10342819;28;20424;-28
2023/10/29 20:54:45;;;;;;;2.78;1.08;;;;;;;19.27;63.84;95514.13;10345114;28;20027;-29
2023/10/29 20:59:45;;;;;;;3.90;1.20;;;;;;;19.27;63.62;95520.03;10341826;28;20038;-35
2023/10/29 21:04:45;;;;;;;2.37;1.10;;;;;;;19.27;64.22;95516.66;10361350;28;20026;-28
2023/10/29 21:09:46;;;;;;;8.07;1.40;;;;;;;19.24;63.35;95509.13;10359184;28;20029;-28
2023/10/29 21:14:46;;;;;;;2.83;1.80;;;;;;;19.24;64.44;95520.09;10367369;28;20029;-30
2023/10/29 21:19:47;;;;;;;2.30;1.10;;;;;;;19.22;64.75;95521.84;10361449;28;20038;-28
2023/10/29 21:24:47;;;;;;;2.80;1.08;;;;;;;19.20;64.63;95510.06;10360355;28;20377;-28
2023/10/29 21:29:47;;;;;;;2.40;1.45;;;;;;;19.21;63.90;95525.25;10367130;28;20034;-29
2023/10/29 21:34:48;;;;;;;4.03;1.90;;;;;;;19.19;65.14;95514.28;10368597;28;20030;-29
2023/10/29 21:39:48;;;;;;;5.57;1.17;;;;;;;19.19;65.34;95526.97;10364051;28;20284;-28
2023/10/29 21:44:49;;;;;;;6.10;1.48;;;;;;;19.17;65.47;95515.16;10366581;28;20802;-32
2023/10/29 21:49:50;;;;;;;3.70;1.13;;;;;;;19.18;65.58;95509.22;10365828;28;20026;-29
2023/10/29 21:54:50;;;;;;;2.63;1.08;;;;;;;19.17;65.72;95522.78;10361393;28;20026;-28
2023/10/29 21:59:50;;;;;;;3.60;1.10;;;;;;;19.17;65.39;95522.78;10365457;28;20128;-30
2023/10/29 22:04:51;;;;;;;5.70;1.17;;;;;;;19.14;65.74;95521.13;10360730;28;20481;-28
2023/10/29 22:09:52;;;;;;;1.63;0.90;;;;;;;19.15;65.92;95524.50;10358475;28;20269;-28
2023/10/29 22:14:52;;;;;;;3.38;1.05;;;;;;;19.15;65.87;95527.03;10363714;28;20030;-28
2023/10/29 22:19:53;;;;;;;4.25;1.20;;;;;;;19.13;66.47;95527.09;10366979;28;20026;-28
2023/10/29 22:24:53;;;;;;;6.07;1.37;;;;;;;19.13;66.12;95532.16;10353430;28;20073;-28
2023/10/29 22:29:54;;;;;;;7.97;2.03;;;;;;;19.12;66.34;95529.66;10363353;28;20051;-28
2023/10/29 22:34:54;;;;;;;3.58;1.25;;;;;;;19.13;66.42;95526.22;10366729;28;20025;-30
2023/10/29 22:39:54;;;;;;;1.77;1.00;;;;;;;19.12;66.00;95532.19;10363647;28;20075;-28
2023/10/29 22:44:55;;;;;;;3.50;1.93;;;;;;;19.11;66.35;95544.03;10363764;28;20034;-28
2023/10/29 22:49:58;;;;;;;5.63;1.23;;;;;;;19.10;66.39;95547.44;10365976;28;20030;-29
2023/10/29 22:54:58;;;;;;;6.53;1.52;;;;;;;19.10;66.02;95536.47;10367589;28;20153;-28
2023/10/29 22:59:58;;;;;;;2.30;0.87;;;;;;;19.11;66.07;95533.06;10369981;28;20546;-28
2023/10/29 23:04:59;;;;;;;4.27;1.40;;;;;;;19.11;66.15;95533.06;10373015;28;20030;-28
2023/10/29 23:09:59;;;;;;;2.13;1.30;;;;;;;19.10;65.87;95541.53;10359799;28;20048;-29
2023/10/29 23:15:00;;;;;;;4.90;1.20;;;;;;;19.12;66.16;95539.78;10369629;28;20215;-29
2023/10/29 23:20:03;;;;;;;3.37;1.00;;;;;;;19.08;66.45;95538.19;10369181;28;20180;-29